UAL412 KGJT-KDEN
Flight info
| Callsign | UAL412 |
|---|---|
| Flight time | 0h 41m |
| Altitude | 27000 |
| Route | HAQHY SSKII4 |
| Aircraft | A320/M-SDE3FGHIRWY/LB1 |
Departure
| Time | 2026-05-05 21:17 |
|---|---|
| Airport | Grand Junction Regional Airport (KGJT) |
Arrival
| Time | 2026-05-05 21:58 |
|---|---|
| Airport | Denver International Airport (KDEN) |
| Time | Latitude | Longitude | Altitude | Speed | Heading |
|---|---|---|---|---|---|
| 2026-05-05 20:57 | 39.12362 | -108.52966 | 4846 ft | 0 kts | 214° |
| 2026-05-05 21:10 | 39.12377 | -108.52953 | 4843 ft | 4 kts | 211° |
| 2026-05-05 21:11 | 39.12401 | -108.52937 | 4844 ft | 4 kts | 201° |
| 2026-05-05 21:11 | 39.12426 | -108.52929 | 4846 ft | 4 kts | 174° |
| 2026-05-05 21:11 | 39.12444 | -108.52938 | 4845 ft | 1 kts | 126° |
| 2026-05-05 21:11 | 39.12447 | -108.52942 | 4845 ft | 1 kts | 126° |
| 2026-05-05 21:13 | 39.12443 | -108.52936 | 4847 ft | 5 kts | 126° |
| 2026-05-05 21:13 | 39.12399 | -108.52856 | 4847 ft | 16 kts | 126° |
| 2026-05-05 21:13 | 39.12331 | -108.52735 | 4848 ft | 17 kts | 126° |
| 2026-05-05 21:14 | 39.12302 | -108.52600 | 4850 ft | 16 kts | 62° |
| 2026-05-05 21:14 | 39.12289 | -108.52480 | 4854 ft | 15 kts | 126° |
| 2026-05-05 21:14 | 39.12207 | -108.52333 | 4851 ft | 25 kts | 124° |
| 2026-05-05 21:14 | 39.12096 | -108.52129 | 4852 ft | 29 kts | 126° |
| 2026-05-05 21:15 | 39.11979 | -108.51917 | 4852 ft | 29 kts | 125° |
| 2026-05-05 21:15 | 39.11867 | -108.51712 | 4860 ft | 26 kts | 125° |
| 2026-05-05 21:15 | 39.11803 | -108.51538 | 4867 ft | 18 kts | 77° |
| 2026-05-05 21:15 | 39.11867 | -108.51465 | 4871 ft | 11 kts | 329° |
| 2026-05-05 21:16 | 39.11878 | -108.51485 | 4870 ft | 1 kts | 303° |
| 2026-05-05 21:16 | 39.11894 | -108.51515 | 4869 ft | 13 kts | 304° |
| 2026-05-05 21:16 | 39.12106 | -108.51904 | 4857 ft | 91 kts | 305° |
| 2026-05-05 21:16 | 39.12596 | -108.52788 | 4855 ft | 149 kts | 306° |
| 2026-05-05 21:17 | 39.13282 | -108.54045 | 4985 ft | 183 kts | 304° |
| 2026-05-05 21:17 | 39.14001 | -108.55440 | 5550 ft | 194 kts | 301° |
| 2026-05-05 21:17 | 39.14812 | -108.56965 | 6034 ft | 218 kts | 303° |
| 2026-05-05 21:17 | 39.15744 | -108.58652 | 6355 ft | 243 kts | 303° |
| 2026-05-05 21:18 | 39.16734 | -108.60542 | 6685 ft | 266 kts | 297° |
| 2026-05-05 21:18 | 39.17431 | -108.62822 | 7246 ft | 279 kts | 283° |
| 2026-05-05 21:18 | 39.17667 | -108.65318 | 8010 ft | 283 kts | 269° |
| 2026-05-05 21:18 | 39.17399 | -108.67845 | 8776 ft | 287 kts | 253° |
| 2026-05-05 21:19 | 39.16615 | -108.70226 | 9549 ft | 291 kts | 238° |
| 2026-05-05 21:19 | 39.15356 | -108.72265 | 10342 ft | 292 kts | 223° |
| 2026-05-05 21:19 | 39.13728 | -108.73810 | 11163 ft | 291 kts | 207° |
| 2026-05-05 21:19 | 39.11875 | -108.74749 | 11963 ft | 291 kts | 193° |
| 2026-05-05 21:20 | 39.09862 | -108.75036 | 12747 ft | 292 kts | 179° |
| 2026-05-05 21:20 | 39.07847 | -108.74638 | 13427 ft | 299 kts | 167° |
| 2026-05-05 21:20 | 39.05868 | -108.73501 | 13558 ft | 325 kts | 149° |
| 2026-05-05 21:20 | 39.04130 | -108.71491 | 13824 ft | 347 kts | 131° |
| 2026-05-05 21:21 | 39.02887 | -108.68774 | 14268 ft | 359 kts | 117° |
| 2026-05-05 21:21 | 39.01869 | -108.65814 | 14844 ft | 364 kts | 117° |
| 2026-05-05 21:21 | 39.00840 | -108.62832 | 15413 ft | 367 kts | 118° |
| 2026-05-05 21:21 | 38.99800 | -108.59817 | 15946 ft | 370 kts | 118° |
| 2026-05-05 21:22 | 38.98747 | -108.56779 | 16482 ft | 374 kts | 118° |
| 2026-05-05 21:22 | 38.97684 | -108.53719 | 17009 ft | 377 kts | 119° |
| 2026-05-05 21:22 | 38.96609 | -108.50624 | 17529 ft | 381 kts | 119° |
| 2026-05-05 21:22 | 38.95524 | -108.47504 | 18060 ft | 385 kts | 120° |
| 2026-05-05 21:23 | 38.94429 | -108.44357 | 18593 ft | 388 kts | 120° |
| 2026-05-05 21:23 | 38.93323 | -108.41176 | 19131 ft | 392 kts | 120° |
| 2026-05-05 21:23 | 38.92207 | -108.37966 | 19643 ft | 396 kts | 120° |
| 2026-05-05 21:23 | 38.91076 | -108.34720 | 20187 ft | 399 kts | 120° |
| 2026-05-05 21:24 | 38.89935 | -108.31455 | 20703 ft | 403 kts | 120° |
| 2026-05-05 21:24 | 38.88780 | -108.28161 | 21198 ft | 406 kts | 121° |
| 2026-05-05 21:24 | 38.87614 | -108.24840 | 21673 ft | 410 kts | 121° |
| 2026-05-05 21:24 | 38.86438 | -108.21494 | 22167 ft | 413 kts | 121° |
| 2026-05-05 21:25 | 38.85250 | -108.18120 | 22625 ft | 417 kts | 121° |
| 2026-05-05 21:25 | 38.84069 | -108.14764 | 23081 ft | 420 kts | 121° |
| 2026-05-05 21:25 | 38.83068 | -108.11200 | 23512 ft | 432 kts | 109° |
| 2026-05-05 21:25 | 38.82674 | -108.07320 | 23915 ft | 447 kts | 95° |
| 2026-05-05 21:26 | 38.82985 | -108.03309 | 24306 ft | 458 kts | 82° |
| 2026-05-05 21:26 | 38.83703 | -107.99313 | 24701 ft | 462 kts | 81° |
| 2026-05-05 21:26 | 38.84432 | -107.95283 | 25058 ft | 466 kts | 81° |
| 2026-05-05 21:26 | 38.85162 | -107.91216 | 25413 ft | 469 kts | 81° |
| 2026-05-05 21:27 | 38.85896 | -107.87126 | 25786 ft | 472 kts | 81° |
| 2026-05-05 21:27 | 38.86632 | -107.83011 | 26163 ft | 474 kts | 81° |
| 2026-05-05 21:27 | 38.87367 | -107.78874 | 26544 ft | 477 kts | 81° |
| 2026-05-05 21:27 | 38.88102 | -107.74720 | 26914 ft | 479 kts | 81° |
| 2026-05-05 21:28 | 38.88837 | -107.70543 | 27286 ft | 481 kts | 81° |
| 2026-05-05 21:28 | 38.89576 | -107.66334 | 27661 ft | 483 kts | 81° |
| 2026-05-05 21:28 | 38.90312 | -107.62127 | 28036 ft | 484 kts | 81° |
| 2026-05-05 21:28 | 38.91051 | -107.57899 | 28411 ft | 486 kts | 81° |
| 2026-05-05 21:29 | 38.91792 | -107.53656 | 28536 ft | 487 kts | 82° |
| 2026-05-05 21:29 | 38.92533 | -107.49423 | 27972 ft | 484 kts | 81° |
| 2026-05-05 21:29 | 38.93266 | -107.45241 | 27125 ft | 477 kts | 81° |
| 2026-05-05 21:29 | 38.93988 | -107.41114 | 26311 ft | 470 kts | 81° |
| 2026-05-05 21:30 | 38.94697 | -107.37047 | 25534 ft | 462 kts | 81° |
| 2026-05-05 21:30 | 38.95386 | -107.33056 | 24979 ft | 454 kts | 81° |
| 2026-05-05 21:30 | 38.96062 | -107.29126 | 24732 ft | 447 kts | 81° |
| 2026-05-05 21:30 | 38.96727 | -107.25249 | 24481 ft | 441 kts | 81° |
| 2026-05-05 21:31 | 38.97383 | -107.21422 | 24235 ft | 436 kts | 81° |
| 2026-05-05 21:31 | 38.98030 | -107.17634 | 23977 ft | 432 kts | 81° |
| 2026-05-05 21:31 | 38.98670 | -107.13880 | 23724 ft | 428 kts | 81° |
| 2026-05-05 21:31 | 38.99305 | -107.10162 | 23471 ft | 423 kts | 81° |
| 2026-05-05 21:32 | 38.99933 | -107.06489 | 23216 ft | 418 kts | 81° |
| 2026-05-05 21:32 | 39.00553 | -107.02869 | 22965 ft | 412 kts | 81° |
| 2026-05-05 21:32 | 39.01156 | -106.99353 | 23007 ft | 406 kts | 81° |
| 2026-05-05 21:32 | 39.01763 | -106.95784 | 23060 ft | 408 kts | 81° |
| 2026-05-05 21:33 | 39.02366 | -106.92217 | 23073 ft | 409 kts | 81° |
| 2026-05-05 21:33 | 39.02967 | -106.88651 | 23055 ft | 408 kts | 81° |
| 2026-05-05 21:33 | 39.03572 | -106.85076 | 23055 ft | 409 kts | 81° |
| 2026-05-05 21:33 | 39.04175 | -106.81507 | 23072 ft | 409 kts | 82° |
| 2026-05-05 21:34 | 39.04776 | -106.77931 | 23072 ft | 409 kts | 82° |
| 2026-05-05 21:34 | 39.05377 | -106.74356 | 23072 ft | 409 kts | 81° |
| 2026-05-05 21:34 | 39.05982 | -106.70787 | 23080 ft | 409 kts | 81° |
| 2026-05-05 21:34 | 39.06588 | -106.67217 | 23082 ft | 408 kts | 82° |
| 2026-05-05 21:35 | 39.07190 | -106.63644 | 23089 ft | 409 kts | 82° |
| 2026-05-05 21:35 | 39.07789 | -106.60067 | 23094 ft | 408 kts | 82° |
| 2026-05-05 21:35 | 39.08383 | -106.56498 | 23094 ft | 408 kts | 82° |
| 2026-05-05 21:35 | 39.08977 | -106.52917 | 23106 ft | 408 kts | 82° |
| 2026-05-05 21:36 | 39.09570 | -106.49345 | 23104 ft | 408 kts | 82° |
| 2026-05-05 21:36 | 39.10161 | -106.45771 | 23108 ft | 408 kts | 82° |
| 2026-05-05 21:36 | 39.10751 | -106.42198 | 23116 ft | 408 kts | 82° |
| 2026-05-05 21:36 | 39.11341 | -106.38627 | 23123 ft | 407 kts | 82° |
| 2026-05-05 21:37 | 39.11931 | -106.35062 | 23128 ft | 407 kts | 82° |
| 2026-05-05 21:37 | 39.12517 | -106.31493 | 23128 ft | 407 kts | 82° |
| 2026-05-05 21:37 | 39.13101 | -106.27920 | 23128 ft | 407 kts | 82° |
| 2026-05-05 21:37 | 39.13684 | -106.24347 | 23137 ft | 408 kts | 82° |
| 2026-05-05 21:38 | 39.14269 | -106.20772 | 23136 ft | 408 kts | 82° |
| 2026-05-05 21:38 | 39.14873 | -106.17207 | 23133 ft | 409 kts | 78° |
| 2026-05-05 21:38 | 39.15807 | -106.13734 | 23031 ft | 412 kts | 68° |
| 2026-05-05 21:38 | 39.17007 | -106.10386 | 22776 ft | 410 kts | 67° |
| 2026-05-05 21:39 | 39.18213 | -106.07065 | 22520 ft | 408 kts | 67° |
| 2026-05-05 21:39 | 39.19411 | -106.03759 | 22271 ft | 405 kts | 67° |
| 2026-05-05 21:39 | 39.20595 | -106.00473 | 22021 ft | 403 kts | 68° |
| 2026-05-05 21:39 | 39.21768 | -105.97210 | 21769 ft | 400 kts | 67° |
| 2026-05-05 21:40 | 39.22931 | -105.93970 | 21519 ft | 396 kts | 68° |
| 2026-05-05 21:40 | 39.24080 | -105.90759 | 21270 ft | 393 kts | 68° |
| 2026-05-05 21:40 | 39.25225 | -105.87573 | 21019 ft | 390 kts | 68° |
| 2026-05-05 21:40 | 39.26365 | -105.84408 | 20765 ft | 387 kts | 68° |
| 2026-05-05 21:41 | 39.27497 | -105.81271 | 20515 ft | 385 kts | 68° |
| 2026-05-05 21:41 | 39.28624 | -105.78149 | 20265 ft | 382 kts | 68° |
| 2026-05-05 21:41 | 39.29740 | -105.75048 | 20011 ft | 379 kts | 68° |
| 2026-05-05 21:41 | 39.30845 | -105.71968 | 19757 ft | 377 kts | 68° |
| 2026-05-05 21:42 | 39.31940 | -105.68910 | 19513 ft | 374 kts | 68° |
| 2026-05-05 21:42 | 39.33030 | -105.65869 | 19261 ft | 371 kts | 68° |
| 2026-05-05 21:42 | 39.34118 | -105.62857 | 19008 ft | 369 kts | 68° |
| 2026-05-05 21:42 | 39.35195 | -105.59903 | 18761 ft | 367 kts | 68° |
| 2026-05-05 21:43 | 39.36282 | -105.56938 | 18508 ft | 364 kts | 68° |
| 2026-05-05 21:43 | 39.37359 | -105.53992 | 18257 ft | 361 kts | 68° |
| 2026-05-05 21:43 | 39.38428 | -105.51082 | 18008 ft | 357 kts | 67° |
| 2026-05-05 21:43 | 39.39496 | -105.48178 | 17750 ft | 356 kts | 68° |
| 2026-05-05 21:44 | 39.40555 | -105.45285 | 17495 ft | 354 kts | 68° |
| 2026-05-05 21:44 | 39.41377 | -105.42339 | 17237 ft | 342 kts | 81° |
| 2026-05-05 21:44 | 39.41698 | -105.39350 | 16989 ft | 331 kts | 92° |
| 2026-05-05 21:44 | 39.41712 | -105.36391 | 16737 ft | 328 kts | 93° |
| 2026-05-05 21:45 | 39.41721 | -105.33435 | 16481 ft | 328 kts | 93° |
| 2026-05-05 21:45 | 39.41737 | -105.30489 | 16220 ft | 327 kts | 92° |
| 2026-05-05 21:45 | 39.41756 | -105.27554 | 15971 ft | 326 kts | 92° |
| 2026-05-05 21:45 | 39.41776 | -105.24621 | 15721 ft | 326 kts | 92° |
| 2026-05-05 21:46 | 39.41792 | -105.21694 | 15463 ft | 327 kts | 93° |
| 2026-05-05 21:46 | 39.41806 | -105.18723 | 15215 ft | 332 kts | 92° |
| 2026-05-05 21:46 | 39.41820 | -105.15736 | 14962 ft | 332 kts | 92° |
| 2026-05-05 21:46 | 39.41834 | -105.12759 | 14682 ft | 330 kts | 92° |
| 2026-05-05 21:47 | 39.41846 | -105.09783 | 14277 ft | 331 kts | 92° |
| 2026-05-05 21:47 | 39.41859 | -105.06812 | 13965 ft | 328 kts | 92° |
| 2026-05-05 21:47 | 39.41872 | -105.03852 | 13619 ft | 328 kts | 92° |
| 2026-05-05 21:47 | 39.41883 | -105.00910 | 13326 ft | 325 kts | 92° |
| 2026-05-05 21:48 | 39.41892 | -104.98017 | 13175 ft | 318 kts | 92° |
| 2026-05-05 21:48 | 39.41898 | -104.95198 | 13032 ft | 309 kts | 91° |
| 2026-05-05 21:48 | 39.42040 | -104.92445 | 12795 ft | 306 kts | 86° |
| 2026-05-05 21:48 | 39.42265 | -104.89702 | 12477 ft | 306 kts | 85° |
| 2026-05-05 21:49 | 39.42515 | -104.86963 | 12168 ft | 307 kts | 84° |
| 2026-05-05 21:49 | 39.42769 | -104.84256 | 11863 ft | 306 kts | 84° |
| 2026-05-05 21:49 | 39.43022 | -104.81525 | 11559 ft | 305 kts | 84° |
| 2026-05-05 21:49 | 39.43269 | -104.78809 | 11254 ft | 303 kts | 84° |
| 2026-05-05 21:50 | 39.43581 | -104.76121 | 10951 ft | 302 kts | 75° |
| 2026-05-05 21:50 | 39.44371 | -104.73623 | 10690 ft | 299 kts | 59° |
| 2026-05-05 21:50 | 39.45664 | -104.71550 | 10444 ft | 295 kts | 40° |
| 2026-05-05 21:50 | 39.47343 | -104.70187 | 10196 ft | 291 kts | 26° |
| 2026-05-05 21:51 | 39.49216 | -104.69267 | 10002 ft | 285 kts | 9° |
| 2026-05-05 21:51 | 39.51152 | -104.69121 | 9964 ft | 273 kts | 359° |
| 2026-05-05 21:51 | 39.53004 | -104.69110 | 9969 ft | 260 kts | 360° |
| 2026-05-05 21:51 | 39.54771 | -104.69091 | 9968 ft | 248 kts | 0° |
| 2026-05-05 21:52 | 39.58076 | -104.69051 | 9970 ft | 229 kts | 1° |
| 2026-05-05 21:52 | 39.59725 | -104.69029 | 9904 ft | 243 kts | 1° |
| 2026-05-05 21:52 | 39.61424 | -104.69007 | 9612 ft | 243 kts | 1° |
| 2026-05-05 21:53 | 39.63103 | -104.68989 | 9399 ft | 240 kts | 1° |
| 2026-05-05 21:53 | 39.64754 | -104.68970 | 9181 ft | 235 kts | 2° |
| 2026-05-05 21:53 | 39.65828 | -104.68957 | 9039 ft | 231 kts | 2° |
| 2026-05-05 21:53 | 39.67946 | -104.68932 | 8798 ft | 223 kts | 2° |
| 2026-05-05 21:54 | 39.68972 | -104.68921 | 8710 ft | 225 kts | 2° |
| 2026-05-05 21:54 | 39.70534 | -104.68903 | 8445 ft | 224 kts | 2° |
| 2026-05-05 21:54 | 39.72093 | -104.68886 | 8159 ft | 224 kts | 1° |
| 2026-05-05 21:54 | 39.73633 | -104.68868 | 7896 ft | 215 kts | 1° |
| 2026-05-05 21:55 | 39.75092 | -104.68851 | 7588 ft | 204 kts | 1° |
| 2026-05-05 21:55 | 39.76460 | -104.68836 | 7327 ft | 185 kts | 1° |
| 2026-05-05 21:55 | 39.77663 | -104.68822 | 7091 ft | 164 kts | 1° |
| 2026-05-05 21:55 | 39.78777 | -104.68809 | 6880 ft | 157 kts | 1° |
| 2026-05-05 21:56 | 39.79859 | -104.68796 | 6672 ft | 154 kts | 1° |
| 2026-05-05 21:56 | 39.80931 | -104.68784 | 6469 ft | 153 kts | 2° |
| 2026-05-05 21:56 | 39.81993 | -104.68771 | 6267 ft | 153 kts | 1° |
| 2026-05-05 21:56 | 39.83051 | -104.68758 | 6066 ft | 152 kts | 1° |
| 2026-05-05 21:57 | 39.84107 | -104.68745 | 5874 ft | 151 kts | 1° |
| 2026-05-05 21:57 | 39.85162 | -104.68733 | 5658 ft | 151 kts | 1° |
| 2026-05-05 21:57 | 39.86216 | -104.68721 | 5446 ft | 151 kts | 1° |
| 2026-05-05 21:57 | 39.87233 | -104.68708 | 5362 ft | 132 kts | 1° |
| 2026-05-05 21:58 | 39.87976 | -104.68695 | 5361 ft | 82 kts | 1° |
| 2026-05-05 21:58 | 39.88412 | -104.68681 | 5361 ft | 43 kts | 6° |
| 2026-05-05 21:58 | 39.88587 | -104.68573 | 5359 ft | 17 kts | 56° |
| 2026-05-05 21:58 | 39.88529 | -104.68479 | 5360 ft | 17 kts | 181° |
| 2026-05-05 21:59 | 39.88404 | -104.68481 | 5360 ft | 21 kts | 180° |
| 2026-05-05 21:59 | 39.88226 | -104.68483 | 5360 ft | 30 kts | 180° |
| 2026-05-05 21:59 | 39.88014 | -104.68486 | 5361 ft | 31 kts | 180° |
| 2026-05-05 21:59 | 39.87792 | -104.68488 | 5361 ft | 32 kts | 180° |
| 2026-05-05 22:00 | 39.87570 | -104.68492 | 5361 ft | 32 kts | 181° |
| 2026-05-05 22:00 | 39.87345 | -104.68494 | 5361 ft | 33 kts | 180° |
| 2026-05-05 22:00 | 39.87117 | -104.68496 | 5362 ft | 33 kts | 180° |
| 2026-05-05 22:00 | 39.86887 | -104.68498 | 5362 ft | 33 kts | 180° |
| 2026-05-05 22:01 | 39.86654 | -104.68502 | 5361 ft | 34 kts | 180° |
| 2026-05-05 22:01 | 39.86419 | -104.68504 | 5363 ft | 34 kts | 181° |
| 2026-05-05 22:01 | 39.86200 | -104.68508 | 5367 ft | 22 kts | 175° |
| 2026-05-05 22:01 | 39.86141 | -104.68408 | 5370 ft | 14 kts | 101° |
| 2026-05-05 22:02 | 39.86138 | -104.68241 | 5373 ft | 24 kts | 91° |
| 2026-05-05 22:02 | 39.86135 | -104.67974 | 5376 ft | 32 kts | 90° |
| 2026-05-05 22:02 | 39.86137 | -104.67685 | 5377 ft | 32 kts | 90° |
| 2026-05-05 22:02 | 39.86138 | -104.67395 | 5377 ft | 32 kts | 89° |
| 2026-05-05 22:03 | 39.86092 | -104.67250 | 5376 ft | 14 kts | 174° |
| 2026-05-05 22:03 | 39.86000 | -104.67249 | 5380 ft | 12 kts | 180° |
| 2026-05-05 22:03 | 39.85938 | -104.67249 | 5380 ft | 1 kts | 180° |
| 2026-05-05 22:03 | 39.85935 | -104.67249 | 5375 ft | 0 kts | 180° |